sensor_id;sensor_type;location;lat;lon;timestamp;P1;durP1;ratioP1;P2;durP2;ratioP2
66874;SDS011;53784;52.630;4.896;2023-04-23T00:00:14;58.78;;;24.17;;
66874;SDS011;53784;52.630;4.896;2023-04-23T00:02:43;57.97;;;24.90;;
66874;SDS011;53784;52.630;4.896;2023-04-23T00:05:10;58.70;;;24.60;;
66874;SDS011;53784;52.630;4.896;2023-04-23T00:07:36;59.95;;;25.02;;
66874;SDS011;53784;52.630;4.896;2023-04-23T00:10:02;63.53;;;26.17;;
66874;SDS011;53784;52.630;4.896;2023-04-23T00:12:29;62.42;;;25.67;;
66874;SDS011;53784;52.630;4.896;2023-04-23T00:14:55;60.15;;;25.60;;
66874;SDS011;53784;52.630;4.896;2023-04-23T00:17:20;63.92;;;25.90;;
66874;SDS011;53784;52.630;4.896;2023-04-23T00:19:46;60.10;;;25.80;;
66874;SDS011;53784;52.630;4.896;2023-04-23T00:22:11;66.78;;;27.10;;
66874;SDS011;53784;52.630;4.896;2023-04-23T00:24:38;66.53;;;26.65;;
66874;SDS011;53784;52.630;4.896;2023-04-23T00:27:03;65.40;;;26.75;;
66874;SDS011;53784;52.630;4.896;2023-04-23T00:29:29;61.15;;;24.90;;
66874;SDS011;53784;52.630;4.896;2023-04-23T00:31:54;66.75;;;26.20;;
66874;SDS011;53784;52.630;4.896;2023-04-23T00:34:19;67.95;;;27.50;;
66874;SDS011;53784;52.630;4.896;2023-04-23T00:36:45;63.88;;;26.92;;
66874;SDS011;53784;52.630;4.896;2023-04-23T00:39:10;70.43;;;28.33;;
66874;SDS011;53784;52.630;4.896;2023-04-23T00:41:35;67.32;;;27.77;;
66874;SDS011;53784;52.630;4.896;2023-04-23T00:44:01;65.68;;;28.13;;
66874;SDS011;53784;52.630;4.896;2023-04-23T00:46:27;68.45;;;28.55;;
66874;SDS011;53784;52.630;4.896;2023-04-23T00:48:52;69.20;;;28.25;;
66874;SDS011;53784;52.630;4.896;2023-04-23T00:51:19;72.05;;;29.73;;
66874;SDS011;53784;52.630;4.896;2023-04-23T00:53:45;68.80;;;27.83;;
66874;SDS011;53784;52.630;4.896;2023-04-23T00:56:11;70.15;;;29.00;;
66874;SDS011;53784;52.630;4.896;2023-04-23T00:58:36;70.35;;;28.75;;
66874;SDS011;53784;52.630;4.896;2023-04-23T01:01:02;69.57;;;27.20;;
66874;SDS011;53784;52.630;4.896;2023-04-23T01:03:28;64.07;;;27.25;;
66874;SDS011;53784;52.630;4.896;2023-04-23T01:05:55;66.38;;;27.45;;
66874;SDS011;53784;52.630;4.896;2023-04-23T01:08:20;67.40;;;27.27;;
66874;SDS011;53784;52.630;4.896;2023-04-23T01:10:48;67.93;;;28.13;;
66874;SDS011;53784;52.630;4.896;2023-04-23T01:13:13;69.22;;;28.05;;
66874;SDS011;53784;52.630;4.896;2023-04-23T01:15:39;66.13;;;27.55;;
66874;SDS011;53784;52.630;4.896;2023-04-23T01:18:05;67.25;;;27.88;;
66874;SDS011;53784;52.630;4.896;2023-04-23T01:20:32;71.07;;;28.67;;
66874;SDS011;53784;52.630;4.896;2023-04-23T01:22:58;67.78;;;27.73;;
66874;SDS011;53784;52.630;4.896;2023-04-23T01:25:23;72.35;;;28.17;;
66874;SDS011;53784;52.630;4.896;2023-04-23T01:27:48;72.90;;;29.88;;
66874;SDS011;53784;52.630;4.896;2023-04-23T01:30:14;71.32;;;29.80;;
66874;SDS011;53784;52.630;4.896;2023-04-23T01:32:39;69.47;;;28.50;;
66874;SDS011;53784;52.630;4.896;2023-04-23T01:35:05;72.78;;;29.50;;
66874;SDS011;53784;52.630;4.896;2023-04-23T01:37:32;66.90;;;28.88;;
66874;SDS011;53784;52.630;4.896;2023-04-23T01:39:58;70.25;;;28.90;;
66874;SDS011;53784;52.630;4.896;2023-04-23T01:42:23;70.25;;;28.77;;
66874;SDS011;53784;52.630;4.896;2023-04-23T01:44:49;67.32;;;28.70;;
66874;SDS011;53784;52.630;4.896;2023-04-23T01:47:14;71.80;;;29.05;;
66874;SDS011;53784;52.630;4.896;2023-04-23T01:49:40;68.32;;;28.38;;
66874;SDS011;53784;52.630;4.896;2023-04-23T01:52:05;67.40;;;28.75;;
66874;SDS011;53784;52.630;4.896;2023-04-23T01:54:30;65.60;;;29.33;;
66874;SDS011;53784;52.630;4.896;2023-04-23T01:56:56;67.78;;;29.73;;
66874;SDS011;53784;52.630;4.896;2023-04-23T01:59:22;67.82;;;29.77;;
66874;SDS011;53784;52.630;4.896;2023-04-23T02:01:49;72.68;;;29.30;;
66874;SDS011;53784;52.630;4.896;2023-04-23T02:04:15;66.07;;;27.88;;
66874;SDS011;53784;52.630;4.896;2023-04-23T02:06:41;66.55;;;28.67;;
66874;SDS011;53784;52.630;4.896;2023-04-23T02:09:08;65.45;;;29.45;;
66874;SDS011;53784;52.630;4.896;2023-04-23T02:11:33;67.70;;;29.90;;
66874;SDS011;53784;52.630;4.896;2023-04-23T02:13:59;66.25;;;29.25;;
66874;SDS011;53784;52.630;4.896;2023-04-23T02:16:25;63.28;;;26.58;;
66874;SDS011;53784;52.630;4.896;2023-04-23T02:18:52;63.85;;;26.67;;
66874;SDS011;53784;52.630;4.896;2023-04-23T02:21:18;60.08;;;26.23;;
66874;SDS011;53784;52.630;4.896;2023-04-23T02:23:43;66.10;;;26.67;;
66874;SDS011;53784;52.630;4.896;2023-04-23T02:26:08;59.33;;;26.80;;
66874;SDS011;53784;52.630;4.896;2023-04-23T02:28:33;65.93;;;28.75;;
66874;SDS011;53784;52.630;4.896;2023-04-23T02:30:59;60.53;;;27.33;;
66874;SDS011;53784;52.630;4.896;2023-04-23T02:33:24;66.00;;;28.00;;
66874;SDS011;53784;52.630;4.896;2023-04-23T02:35:50;64.20;;;28.00;;
66874;SDS011;53784;52.630;4.896;2023-04-23T02:38:15;63.08;;;27.58;;
66874;SDS011;53784;52.630;4.896;2023-04-23T02:40:41;61.42;;;27.08;;
66874;SDS011;53784;52.630;4.896;2023-04-23T02:43:07;60.92;;;26.60;;
66874;SDS011;53784;52.630;4.896;2023-04-23T02:45:32;61.92;;;27.95;;
66874;SDS011;53784;52.630;4.896;2023-04-23T02:47:57;69.63;;;28.65;;
66874;SDS011;53784;52.630;4.896;2023-04-23T02:50:23;62.83;;;27.60;;
66874;SDS011;53784;52.630;4.896;2023-04-23T02:52:48;63.97;;;27.88;;
66874;SDS011;53784;52.630;4.896;2023-04-23T02:55:13;60.78;;;25.95;;
66874;SDS011;53784;52.630;4.896;2023-04-23T02:57:39;61.28;;;27.67;;
66874;SDS011;53784;52.630;4.896;2023-04-23T03:00:05;58.88;;;26.58;;
66874;SDS011;53784;52.630;4.896;2023-04-23T03:02:31;63.05;;;28.38;;
66874;SDS011;53784;52.630;4.896;2023-04-23T03:04:56;64.50;;;25.80;;
66874;SDS011;53784;52.630;4.896;2023-04-23T03:07:22;61.25;;;26.63;;
66874;SDS011;53784;52.630;4.896;2023-04-23T03:09:47;60.22;;;25.48;;
66874;SDS011;53784;52.630;4.896;2023-04-23T03:12:13;60.20;;;26.60;;
66874;SDS011;53784;52.630;4.896;2023-04-23T03:14:38;60.63;;;26.58;;
66874;SDS011;53784;52.630;4.896;2023-04-23T03:17:03;65.82;;;27.95;;
66874;SDS011;53784;52.630;4.896;2023-04-23T03:19:29;64.18;;;27.73;;
66874;SDS011;53784;52.630;4.896;2023-04-23T03:21:54;63.55;;;27.58;;
66874;SDS011;53784;52.630;4.896;2023-04-23T03:24:19;60.42;;;25.85;;
66874;SDS011;53784;52.630;4.896;2023-04-23T03:26:45;64.13;;;27.65;;
66874;SDS011;53784;52.630;4.896;2023-04-23T03:29:11;62.15;;;27.48;;
66874;SDS011;53784;52.630;4.896;2023-04-23T03:31:36;65.32;;;27.85;;
66874;SDS011;53784;52.630;4.896;2023-04-23T03:34:01;60.85;;;27.23;;
66874;SDS011;53784;52.630;4.896;2023-04-23T03:36:27;58.10;;;25.48;;
66874;SDS011;53784;52.630;4.896;2023-04-23T03:38:53;60.83;;;26.38;;
66874;SDS011;53784;52.630;4.896;2023-04-23T03:41:18;58.90;;;25.52;;
66874;SDS011;53784;52.630;4.896;2023-04-23T03:43:43;63.67;;;27.65;;
66874;SDS011;53784;52.630;4.896;2023-04-23T03:46:09;57.95;;;24.77;;
66874;SDS011;53784;52.630;4.896;2023-04-23T03:48:34;58.95;;;25.50;;
66874;SDS011;53784;52.630;4.896;2023-04-23T03:51:00;60.72;;;26.38;;
66874;SDS011;53784;52.630;4.896;2023-04-23T03:53:25;61.83;;;25.50;;
66874;SDS011;53784;52.630;4.896;2023-04-23T03:55:51;51.22;;;23.33;;
66874;SDS011;53784;52.630;4.896;2023-04-23T03:58:16;59.85;;;25.17;;
66874;SDS011;53784;52.630;4.896;2023-04-23T04:00:42;57.20;;;24.67;;
66874;SDS011;53784;52.630;4.896;2023-04-23T04:03:07;55.28;;;24.10;;
66874;SDS011;53784;52.630;4.896;2023-04-23T04:05:33;55.95;;;24.33;;
66874;SDS011;53784;52.630;4.896;2023-04-23T04:07:59;55.33;;;24.20;;
66874;SDS011;53784;52.630;4.896;2023-04-23T04:10:25;61.03;;;26.50;;
66874;SDS011;53784;52.630;4.896;2023-04-23T04:12:50;59.28;;;25.98;;
66874;SDS011;53784;52.630;4.896;2023-04-23T04:15:16;59.60;;;25.75;;
66874;SDS011;53784;52.630;4.896;2023-04-23T04:17:43;56.90;;;25.65;;
66874;SDS011;53784;52.630;4.896;2023-04-23T04:20:09;55.88;;;25.17;;
66874;SDS011;53784;52.630;4.896;2023-04-23T04:22:35;55.97;;;23.65;;
66874;SDS011;53784;52.630;4.896;2023-04-23T04:25:00;54.70;;;24.42;;
66874;SDS011;53784;52.630;4.896;2023-04-23T04:27:26;56.05;;;24.05;;
66874;SDS011;53784;52.630;4.896;2023-04-23T04:29:51;56.15;;;25.13;;
66874;SDS011;53784;52.630;4.896;2023-04-23T04:32:16;52.60;;;23.58;;
66874;SDS011;53784;52.630;4.896;2023-04-23T04:34:42;54.22;;;24.15;;
66874;SDS011;53784;52.630;4.896;2023-04-23T04:37:07;50.35;;;22.42;;
66874;SDS011;53784;52.630;4.896;2023-04-23T04:39:34;51.28;;;22.35;;
66874;SDS011;53784;52.630;4.896;2023-04-23T04:42:00;51.78;;;23.23;;
66874;SDS011;53784;52.630;4.896;2023-04-23T04:44:27;49.53;;;22.27;;
66874;SDS011;53784;52.630;4.896;2023-04-23T04:46:52;47.70;;;21.90;;
66874;SDS011;53784;52.630;4.896;2023-04-23T04:49:18;45.78;;;21.65;;
66874;SDS011;53784;52.630;4.896;2023-04-23T04:51:43;45.83;;;20.83;;
66874;SDS011;53784;52.630;4.896;2023-04-23T04:54:08;44.88;;;21.30;;
66874;SDS011;53784;52.630;4.896;2023-04-23T04:56:34;48.08;;;21.65;;
66874;SDS011;53784;52.630;4.896;2023-04-23T04:58:59;43.10;;;21.05;;
66874;SDS011;53784;52.630;4.896;2023-04-23T05:01:25;40.45;;;19.52;;
66874;SDS011;53784;52.630;4.896;2023-04-23T05:03:52;44.25;;;20.92;;
66874;SDS011;53784;52.630;4.896;2023-04-23T05:06:18;41.60;;;19.45;;
66874;SDS011;53784;52.630;4.896;2023-04-23T05:08:43;42.50;;;20.33;;
66874;SDS011;53784;52.630;4.896;2023-04-23T05:11:15;43.80;;;20.83;;
66874;SDS011;53784;52.630;4.896;2023-04-23T05:13:42;45.50;;;21.20;;
66874;SDS011;53784;52.630;4.896;2023-04-23T05:16:08;41.80;;;20.55;;
66874;SDS011;53784;52.630;4.896;2023-04-23T05:18:34;41.47;;;20.85;;
66874;SDS011;53784;52.630;4.896;2023-04-23T05:21:00;40.65;;;20.10;;
66874;SDS011;53784;52.630;4.896;2023-04-23T05:23:25;41.80;;;20.52;;
66874;SDS011;53784;52.630;4.896;2023-04-23T05:25:50;39.28;;;19.98;;
66874;SDS011;53784;52.630;4.896;2023-04-23T05:28:19;40.45;;;18.88;;
66874;SDS011;53784;52.630;4.896;2023-04-23T05:30:45;38.60;;;19.70;;
66874;SDS011;53784;52.630;4.896;2023-04-23T05:33:10;37.80;;;19.83;;
66874;SDS011;53784;52.630;4.896;2023-04-23T05:35:36;39.55;;;20.33;;
66874;SDS011;53784;52.630;4.896;2023-04-23T05:38:01;37.42;;;19.27;;
66874;SDS011;53784;52.630;4.896;2023-04-23T05:40:28;37.58;;;19.00;;
66874;SDS011;53784;52.630;4.896;2023-04-23T05:42:54;38.88;;;19.23;;
66874;SDS011;53784;52.630;4.896;2023-04-23T05:45:21;36.75;;;18.90;;
66874;SDS011;53784;52.630;4.896;2023-04-23T05:47:47;37.25;;;19.95;;
66874;SDS011;53784;52.630;4.896;2023-04-23T05:50:12;37.63;;;18.85;;
66874;SDS011;53784;52.630;4.896;2023-04-23T05:52:37;36.58;;;18.40;;
66874;SDS011;53784;52.630;4.896;2023-04-23T05:55:03;35.72;;;18.40;;
66874;SDS011;53784;52.630;4.896;2023-04-23T05:57:29;34.58;;;18.63;;
66874;SDS011;53784;52.630;4.896;2023-04-23T05:59:55;35.03;;;18.80;;
66874;SDS011;53784;52.630;4.896;2023-04-23T06:02:20;33.17;;;18.00;;
66874;SDS011;53784;52.630;4.896;2023-04-23T06:04:45;33.85;;;18.35;;
66874;SDS011;53784;52.630;4.896;2023-04-23T06:07:11;35.90;;;18.98;;
66874;SDS011;53784;52.630;4.896;2023-04-23T06:09:36;29.27;;;16.88;;
66874;SDS011;53784;52.630;4.896;2023-04-23T06:12:02;28.52;;;17.15;;
66874;SDS011;53784;52.630;4.896;2023-04-23T06:14:27;28.80;;;17.08;;
66874;SDS011;53784;52.630;4.896;2023-04-23T06:16:52;26.13;;;16.17;;
66874;SDS011;53784;52.630;4.896;2023-04-23T06:19:18;27.83;;;16.77;;
66874;SDS011;53784;52.630;4.896;2023-04-23T06:21:43;28.02;;;16.60;;
66874;SDS011;53784;52.630;4.896;2023-04-23T06:24:08;29.15;;;16.55;;
66874;SDS011;53784;52.630;4.896;2023-04-23T06:26:34;25.92;;;16.08;;
66874;SDS011;53784;52.630;4.896;2023-04-23T06:28:59;26.35;;;16.23;;
66874;SDS011;53784;52.630;4.896;2023-04-23T06:31:24;23.23;;;15.07;;
66874;SDS011;53784;52.630;4.896;2023-04-23T06:33:50;23.98;;;15.30;;
66874;SDS011;53784;52.630;4.896;2023-04-23T06:36:15;21.00;;;14.82;;
66874;SDS011;53784;52.630;4.896;2023-04-23T06:38:40;23.10;;;15.32;;
66874;SDS011;53784;52.630;4.896;2023-04-23T06:41:06;20.38;;;14.40;;
66874;SDS011;53784;52.630;4.896;2023-04-23T06:43:31;19.90;;;15.30;;
66874;SDS011;53784;52.630;4.896;2023-04-23T06:45:56;19.33;;;14.50;;
66874;SDS011;53784;52.630;4.896;2023-04-23T06:48:22;18.70;;;14.15;;
66874;SDS011;53784;52.630;4.896;2023-04-23T06:50:47;17.40;;;14.13;;
66874;SDS011;53784;52.630;4.896;2023-04-23T06:53:13;18.13;;;14.23;;
66874;SDS011;53784;52.630;4.896;2023-04-23T06:55:39;19.90;;;13.80;;
66874;SDS011;53784;52.630;4.896;2023-04-23T06:58:04;18.15;;;13.70;;
66874;SDS011;53784;52.630;4.896;2023-04-23T07:00:31;17.92;;;14.48;;
66874;SDS011;53784;52.630;4.896;2023-04-23T07:02:56;16.42;;;13.52;;
66874;SDS011;53784;52.630;4.896;2023-04-23T07:05:22;17.33;;;13.27;;
66874;SDS011;53784;52.630;4.896;2023-04-23T07:07:47;16.08;;;13.02;;
66874;SDS011;53784;52.630;4.896;2023-04-23T07:10:12;15.50;;;12.60;;
66874;SDS011;53784;52.630;4.896;2023-04-23T07:12:38;14.02;;;11.38;;
66874;SDS011;53784;52.630;4.896;2023-04-23T07:15:04;14.05;;;11.23;;
66874;SDS011;53784;52.630;4.896;2023-04-23T07:17:30;16.17;;;10.93;;
66874;SDS011;53784;52.630;4.896;2023-04-23T07:19:55;14.60;;;10.95;;
66874;SDS011;53784;52.630;4.896;2023-04-23T07:22:20;12.98;;;10.27;;
66874;SDS011;53784;52.630;4.896;2023-04-23T07:24:46;14.23;;;9.45;;
66874;SDS011;53784;52.630;4.896;2023-04-23T07:27:11;12.23;;;9.57;;
66874;SDS011;53784;52.630;4.896;2023-04-23T07:29:36;13.30;;;9.77;;
66874;SDS011;53784;52.630;4.896;2023-04-23T07:32:02;14.18;;;10.05;;
66874;SDS011;53784;52.630;4.896;2023-04-23T07:34:27;12.82;;;9.90;;
66874;SDS011;53784;52.630;4.896;2023-04-23T07:36:52;12.48;;;9.85;;
66874;SDS011;53784;52.630;4.896;2023-04-23T07:39:20;12.68;;;9.55;;
66874;SDS011;53784;52.630;4.896;2023-04-23T07:41:45;13.52;;;10.40;;
66874;SDS011;53784;52.630;4.896;2023-04-23T07:44:11;12.23;;;10.50;;
66874;SDS011;53784;52.630;4.896;2023-04-23T07:46:36;11.88;;;9.38;;
66874;SDS011;53784;52.630;4.896;2023-04-23T07:49:01;11.30;;;9.45;;
66874;SDS011;53784;52.630;4.896;2023-04-23T07:51:27;13.95;;;9.57;;
66874;SDS011;53784;52.630;4.896;2023-04-23T07:53:52;13.57;;;9.43;;
66874;SDS011;53784;52.630;4.896;2023-04-23T07:56:22;12.90;;;10.02;;
66874;SDS011;53784;52.630;4.896;2023-04-23T07:58:48;12.63;;;10.27;;
66874;SDS011;53784;52.630;4.896;2023-04-23T08:01:14;12.05;;;9.80;;
66874;SDS011;53784;52.630;4.896;2023-04-23T08:03:39;12.57;;;9.32;;
66874;SDS011;53784;52.630;4.896;2023-04-23T08:06:04;11.95;;;9.20;;
66874;SDS011;53784;52.630;4.896;2023-04-23T08:08:30;11.40;;;8.82;;
66874;SDS011;53784;52.630;4.896;2023-04-23T08:10:55;12.38;;;8.93;;
66874;SDS011;53784;52.630;4.896;2023-04-23T08:13:21;11.88;;;8.52;;
66874;SDS011;53784;52.630;4.896;2023-04-23T08:15:46;10.82;;;8.18;;
66874;SDS011;53784;52.630;4.896;2023-04-23T08:18:13;10.55;;;8.27;;
66874;SDS011;53784;52.630;4.896;2023-04-23T08:20:38;9.55;;;8.18;;
66874;SDS011;53784;52.630;4.896;2023-04-23T08:23:03;10.27;;;8.23;;
66874;SDS011;53784;52.630;4.896;2023-04-23T08:25:29;10.33;;;7.90;;
66874;SDS011;53784;52.630;4.896;2023-04-23T08:27:54;10.82;;;7.82;;
66874;SDS011;53784;52.630;4.896;2023-04-23T08:30:20;10.83;;;7.63;;
66874;SDS011;53784;52.630;4.896;2023-04-23T08:32:47;10.68;;;7.32;;
66874;SDS011;53784;52.630;4.896;2023-04-23T08:35:13;10.00;;;7.50;;
66874;SDS011;53784;52.630;4.896;2023-04-23T08:37:38;9.70;;;7.05;;
66874;SDS011;53784;52.630;4.896;2023-04-23T08:40:04;9.37;;;6.90;;
66874;SDS011;53784;52.630;4.896;2023-04-23T08:42:41;10.20;;;6.68;;
66874;SDS011;53784;52.630;4.896;2023-04-23T08:45:10;9.95;;;6.72;;
66874;SDS011;53784;52.630;4.896;2023-04-23T08:47:36;10.93;;;7.22;;
66874;SDS011;53784;52.630;4.896;2023-04-23T08:50:04;9.43;;;6.72;;
66874;SDS011;53784;52.630;4.896;2023-04-23T08:52:32;9.50;;;6.78;;
66874;SDS011;53784;52.630;4.896;2023-04-23T08:55:00;9.27;;;6.38;;
66874;SDS011;53784;52.630;4.896;2023-04-23T08:57:25;10.77;;;6.35;;
66874;SDS011;53784;52.630;4.896;2023-04-23T08:59:51;8.43;;;5.70;;
66874;SDS011;53784;52.630;4.896;2023-04-23T09:02:17;9.40;;;5.82;;
66874;SDS011;53784;52.630;4.896;2023-04-23T09:04:43;9.73;;;6.18;;
66874;SDS011;53784;52.630;4.896;2023-04-23T09:07:09;10.27;;;6.22;;
66874;SDS011;53784;52.630;4.896;2023-04-23T09:09:37;9.52;;;6.10;;
66874;SDS011;53784;52.630;4.896;2023-04-23T09:12:04;8.95;;;6.32;;
66874;SDS011;53784;52.630;4.896;2023-04-23T09:14:30;9.07;;;6.28;;
66874;SDS011;53784;52.630;4.896;2023-04-23T09:16:56;9.73;;;6.20;;
66874;SDS011;53784;52.630;4.896;2023-04-23T09:19:21;8.68;;;6.03;;
66874;SDS011;53784;52.630;4.896;2023-04-23T09:21:51;7.57;;;5.50;;
66874;SDS011;53784;52.630;4.896;2023-04-23T09:24:16;8.85;;;6.00;;
66874;SDS011;53784;52.630;4.896;2023-04-23T09:26:46;9.17;;;6.07;;
66874;SDS011;53784;52.630;4.896;2023-04-23T09:29:18;8.63;;;5.68;;
66874;SDS011;53784;52.630;4.896;2023-04-23T09:31:45;9.15;;;5.53;;
66874;SDS011;53784;52.630;4.896;2023-04-23T09:34:13;8.75;;;6.30;;
66874;SDS011;53784;52.630;4.896;2023-04-23T09:36:40;7.78;;;5.75;;
66874;SDS011;53784;52.630;4.896;2023-04-23T09:39:10;8.48;;;5.00;;
66874;SDS011;53784;52.630;4.896;2023-04-23T09:41:36;9.25;;;5.15;;
66874;SDS011;53784;52.630;4.896;2023-04-23T09:44:02;8.75;;;6.10;;
66874;SDS011;53784;52.630;4.896;2023-04-23T09:46:40;8.98;;;5.55;;
66874;SDS011;53784;52.630;4.896;2023-04-23T09:49:07;9.88;;;5.47;;
66874;SDS011;53784;52.630;4.896;2023-04-23T09:52:06;8.40;;;4.30;;
66874;SDS011;53784;52.630;4.896;2023-04-23T09:54:24;7.35;;;4.50;;
66874;SDS011;53784;52.630;4.896;2023-04-23T09:56:51;8.02;;;4.57;;
66874;SDS011;53784;52.630;4.896;2023-04-23T09:59:27;8.15;;;4.82;;
66874;SDS011;53784;52.630;4.896;2023-04-23T10:01:54;8.48;;;4.90;;
66874;SDS011;53784;52.630;4.896;2023-04-23T10:04:23;7.63;;;5.00;;
66874;SDS011;53784;52.630;4.896;2023-04-23T10:06:55;8.80;;;5.43;;
66874;SDS011;53784;52.630;4.896;2023-04-23T10:09:25;8.43;;;4.25;;
66874;SDS011;53784;52.630;4.896;2023-04-23T10:11:58;9.57;;;4.40;;
66874;SDS011;53784;52.630;4.896;2023-04-23T10:14:26;7.50;;;3.40;;
66874;SDS011;53784;52.630;4.896;2023-04-23T10:16:55;8.45;;;3.80;;
66874;SDS011;53784;52.630;4.896;2023-04-23T10:19:22;8.05;;;3.50;;
66874;SDS011;53784;52.630;4.896;2023-04-23T10:21:49;7.38;;;3.40;;
66874;SDS011;53784;52.630;4.896;2023-04-23T10:24:19;8.48;;;3.25;;
66874;SDS011;53784;52.630;4.896;2023-04-23T10:26:48;8.52;;;3.30;;
66874;SDS011;53784;52.630;4.896;2023-04-23T10:29:15;7.60;;;3.10;;
66874;SDS011;53784;52.630;4.896;2023-04-23T10:31:42;6.53;;;2.90;;
66874;SDS011;53784;52.630;4.896;2023-04-23T10:34:08;8.55;;;3.10;;
66874;SDS011;53784;52.630;4.896;2023-04-23T10:36:35;7.45;;;3.08;;
66874;SDS011;53784;52.630;4.896;2023-04-23T10:39:01;6.82;;;2.90;;
66874;SDS011;53784;52.630;4.896;2023-04-23T10:41:38;6.05;;;2.85;;
66874;SDS011;53784;52.630;4.896;2023-04-23T10:44:04;8.40;;;2.85;;
66874;SDS011;53784;52.630;4.896;2023-04-23T10:46:31;9.00;;;2.85;;
66874;SDS011;53784;52.630;4.896;2023-04-23T10:49:04;7.30;;;2.65;;
66874;SDS011;53784;52.630;4.896;2023-04-23T10:51:33;6.18;;;2.55;;
66874;SDS011;53784;52.630;4.896;2023-04-23T10:54:03;6.50;;;2.70;;
66874;SDS011;53784;52.630;4.896;2023-04-23T10:56:28;7.55;;;2.88;;
66874;SDS011;53784;52.630;4.896;2023-04-23T10:58:55;7.03;;;3.00;;
66874;SDS011;53784;52.630;4.896;2023-04-23T11:01:29;7.32;;;2.80;;
66874;SDS011;53784;52.630;4.896;2023-04-23T11:03:55;7.45;;;2.70;;
66874;SDS011;53784;52.630;4.896;2023-04-23T11:11:58;7.55;;;2.50;;
66874;SDS011;53784;52.630;4.896;2023-04-23T11:15:00;6.82;;;2.60;;
66874;SDS011;53784;52.630;4.896;2023-04-23T11:17:22;6.05;;;2.53;;
66874;SDS011;53784;52.630;4.896;2023-04-23T11:20:04;6.97;;;2.72;;
66874;SDS011;53784;52.630;4.896;2023-04-23T11:25:17;8.90;;;3.10;;
66874;SDS011;53784;52.630;4.896;2023-04-23T11:27:44;8.30;;;3.25;;
66874;SDS011;53784;52.630;4.896;2023-04-23T11:30:11;8.50;;;3.00;;
66874;SDS011;53784;52.630;4.896;2023-04-23T11:32:38;7.18;;;2.97;;
66874;SDS011;53784;52.630;4.896;2023-04-23T11:35:05;6.85;;;2.70;;
66874;SDS011;53784;52.630;4.896;2023-04-23T11:37:31;6.53;;;2.90;;
66874;SDS011;53784;52.630;4.896;2023-04-23T11:39:57;6.60;;;2.50;;
66874;SDS011;53784;52.630;4.896;2023-04-23T11:42:32;6.25;;;2.30;;
66874;SDS011;53784;52.630;4.896;2023-04-23T11:45:05;8.35;;;2.90;;
66874;SDS011;53784;52.630;4.896;2023-04-23T11:47:31;6.75;;;2.80;;
66874;SDS011;53784;52.630;4.896;2023-04-23T11:49:57;6.32;;;3.00;;
66874;SDS011;53784;52.630;4.896;2023-04-23T11:52:25;8.73;;;3.30;;
66874;SDS011;53784;52.630;4.896;2023-04-23T11:54:50;6.68;;;3.55;;
66874;SDS011;53784;52.630;4.896;2023-04-23T11:57:15;8.90;;;3.72;;
66874;SDS011;53784;52.630;4.896;2023-04-23T11:59:41;9.35;;;4.10;;
66874;SDS011;53784;52.630;4.896;2023-04-23T12:02:06;7.68;;;3.42;;
66874;SDS011;53784;52.630;4.896;2023-04-23T12:04:31;9.50;;;3.50;;
66874;SDS011;53784;52.630;4.896;2023-04-23T12:06:57;6.75;;;3.30;;
66874;SDS011;53784;52.630;4.896;2023-04-23T12:09:24;6.82;;;3.30;;
66874;SDS011;53784;52.630;4.896;2023-04-23T12:11:50;9.60;;;3.55;;
66874;SDS011;53784;52.630;4.896;2023-04-23T12:14:16;9.48;;;3.15;;
66874;SDS011;53784;52.630;4.896;2023-04-23T12:16:43;7.68;;;3.00;;
66874;SDS011;53784;52.630;4.896;2023-04-23T12:19:16;9.20;;;2.88;;
66874;SDS011;53784;52.630;4.896;2023-04-23T12:24:19;8.38;;;2.70;;
66874;SDS011;53784;52.630;4.896;2023-04-23T12:26:48;8.95;;;2.83;;
66874;SDS011;53784;52.630;4.896;2023-04-23T12:29:32;7.63;;;2.60;;
66874;SDS011;53784;52.630;4.896;2023-04-23T12:31:59;7.50;;;2.70;;
66874;SDS011;53784;52.630;4.896;2023-04-23T12:34:24;7.20;;;2.70;;
66874;SDS011;53784;52.630;4.896;2023-04-23T12:36:50;7.22;;;2.47;;
66874;SDS011;53784;52.630;4.896;2023-04-23T12:39:21;7.28;;;2.20;;
66874;SDS011;53784;52.630;4.896;2023-04-23T12:41:54;7.53;;;2.63;;
66874;SDS011;53784;52.630;4.896;2023-04-23T12:44:29;5.80;;;2.50;;
66874;SDS011;53784;52.630;4.896;2023-04-23T12:46:59;8.30;;;2.60;;
66874;SDS011;53784;52.630;4.896;2023-04-23T12:49:28;6.13;;;2.80;;
66874;SDS011;53784;52.630;4.896;2023-04-23T12:51:55;9.27;;;2.83;;
66874;SDS011;53784;52.630;4.896;2023-04-23T12:54:27;11.00;;;2.75;;
66874;SDS011;53784;52.630;4.896;2023-04-23T12:56:59;10.95;;;2.65;;
66874;SDS011;53784;52.630;4.896;2023-04-23T12:59:28;7.22;;;2.20;;
66874;SDS011;53784;52.630;4.896;2023-04-23T13:01:54;8.38;;;2.53;;
66874;SDS011;53784;52.630;4.896;2023-04-23T13:04:19;6.10;;;1.65;;
66874;SDS011;53784;52.630;4.896;2023-04-23T13:06:45;6.45;;;1.70;;
66874;SDS011;53784;52.630;4.896;2023-04-23T13:09:10;5.28;;;1.60;;
66874;SDS011;53784;52.630;4.896;2023-04-23T13:11:39;5.13;;;1.40;;
66874;SDS011;53784;52.630;4.896;2023-04-23T13:14:05;5.30;;;1.48;;
66874;SDS011;53784;52.630;4.896;2023-04-23T13:16:31;3.95;;;1.60;;
66874;SDS011;53784;52.630;4.896;2023-04-23T13:18:56;4.57;;;1.40;;
66874;SDS011;53784;52.630;4.896;2023-04-23T13:21:23;8.15;;;1.80;;
66874;SDS011;53784;52.630;4.896;2023-04-23T13:23:49;6.95;;;1.90;;
66874;SDS011;53784;52.630;4.896;2023-04-23T13:26:14;5.05;;;1.80;;
66874;SDS011;53784;52.630;4.896;2023-04-23T13:28:39;6.22;;;1.80;;
66874;SDS011;53784;52.630;4.896;2023-04-23T13:31:05;8.52;;;2.10;;
66874;SDS011;53784;52.630;4.896;2023-04-23T13:33:31;4.75;;;1.90;;
66874;SDS011;53784;52.630;4.896;2023-04-23T13:35:57;7.80;;;2.30;;
66874;SDS011;53784;52.630;4.896;2023-04-23T13:38:25;7.57;;;2.10;;
66874;SDS011;53784;52.630;4.896;2023-04-23T13:40:51;6.85;;;1.80;;
66874;SDS011;53784;52.630;4.896;2023-04-23T13:43:17;7.35;;;2.03;;
66874;SDS011;53784;52.630;4.896;2023-04-23T13:45:42;7.10;;;1.92;;
66874;SDS011;53784;52.630;4.896;2023-04-23T13:48:08;7.72;;;2.00;;
66874;SDS011;53784;52.630;4.896;2023-04-23T13:50:33;4.78;;;1.90;;
66874;SDS011;53784;52.630;4.896;2023-04-23T13:52:59;6.28;;;1.80;;
66874;SDS011;53784;52.630;4.896;2023-04-23T13:55:24;7.10;;;1.65;;
66874;SDS011;53784;52.630;4.896;2023-04-23T13:57:50;7.47;;;1.60;;
66874;SDS011;53784;52.630;4.896;2023-04-23T14:00:15;4.70;;;1.50;;
66874;SDS011;53784;52.630;4.896;2023-04-23T14:02:41;6.50;;;1.88;;
66874;SDS011;53784;52.630;4.896;2023-04-23T14:05:06;6.47;;;1.73;;
66874;SDS011;53784;52.630;4.896;2023-04-23T14:07:33;5.93;;;1.73;;
66874;SDS011;53784;52.630;4.896;2023-04-23T14:09:58;5.05;;;1.70;;
66874;SDS011;53784;52.630;4.896;2023-04-23T14:12:23;4.72;;;2.08;;
66874;SDS011;53784;52.630;4.896;2023-04-23T14:14:50;7.60;;;3.10;;
66874;SDS011;53784;52.630;4.896;2023-04-23T14:17:16;5.97;;;2.67;;
66874;SDS011;53784;52.630;4.896;2023-04-23T14:19:41;5.45;;;2.30;;
66874;SDS011;53784;52.630;4.896;2023-04-23T14:22:06;8.43;;;2.47;;
66874;SDS011;53784;52.630;4.896;2023-04-23T14:24:32;7.32;;;2.72;;
66874;SDS011;53784;52.630;4.896;2023-04-23T14:26:59;7.18;;;2.40;;
66874;SDS011;53784;52.630;4.896;2023-04-23T14:29:30;6.35;;;2.33;;
66874;SDS011;53784;52.630;4.896;2023-04-23T14:31:59;8.30;;;2.38;;
66874;SDS011;53784;52.630;4.896;2023-04-23T14:34:24;6.72;;;2.05;;
66874;SDS011;53784;52.630;4.896;2023-04-23T14:36:50;5.63;;;2.17;;
66874;SDS011;53784;52.630;4.896;2023-04-23T14:39:16;9.20;;;2.75;;